Flugplatz Spangdahlem Air Base

Bericht für ETAD

vom 31.05. um 09:56 UTC

Wind 9 kt aus 80° in Böen 16 kt

Sichtweite 10 km oder mehr

gering bewölkt in 4900 ft

Temperatur 17.4°C

Taupunkt 3.7°C

Luftfeuchtigkeit 40%

Luftdruck 1021 hPa

ETAD 310956Z AUTO 08009G16KT 9999 FEW049 17/04 A3015 RMK AO2 SLP198 T01740037

Prognose für ETAD

vom 31.05. um 10:00 UTC

Zwischen 10:00 UTC und 18:00 UTC

Wind 10 kt aus 70° in Böen 18 kt

Sichtweite 10 km oder mehr

aufgelockert bewölkt in 5000 ft


Zwischen 18:00 und 19:00 UTC übergehend zu

Wind 9 kt aus 80°

Sichtweite 10 km oder mehr

aufgelockert bewölkt in 5000 ft

TAF ETAD 311000Z 3110/0116 07010G18KT 9999 SCT050 QNH3016INS BECMG 3118/3119 08009KT 9999 SCT050 QNH3014INS TX22/3115Z TN10/0104Z
Impressum